Konawa, Oklahoma
Current Conditions -  °F | °C
As of 6:35 PM on Sunday 21 Dec 2014 (Local Time) from KADH Reporting Station
Haze Haze  
Wind Chill: 39°   Ceiling: 500
Heat Index: 45°   Visibility: 4mi
Dew Point: 45°   Wind: 10mph
Humidity: 100%   Direction: 150°SSE
Pressure: 29.8"   Gusts: NA
Location:  34.96°N, 96.75°W
Report Text: KADH 220035Z AUTO 15009KT 4SM BR OVC005 07/07 A2980 RMK AO2
Loading
Personal Weather Stations






























Interactive Weather Map New forecast layout! Learn more

10-Day Weather Forecast

Advertisements
Track Severe Weather on mobile